createdAt,value
2019-05-17T00:00:20.530Z,100095.23
2019-05-17T00:02:48.512Z,100095.98
2019-05-17T00:05:17.824Z,100090.77
2019-05-17T00:07:47.501Z,100093.26
2019-05-17T00:10:17.391Z,100095.42
2019-05-17T00:12:47.212Z,100091.97
2019-05-17T00:15:17.048Z,100102.19
2019-05-17T00:17:46.845Z,100094.13
2019-05-17T00:20:17.257Z,100088.94
2019-05-17T00:22:47.148Z,100090.39
2019-05-17T00:25:16.771Z,100085.23
2019-05-17T00:27:47.178Z,100088.99
2019-05-17T00:30:14.570Z,100085.98
2019-05-17T00:32:42.375Z,100081.01
2019-05-17T00:35:10.677Z,100077.84
2019-05-17T00:37:38.486Z,100082.52
2019-05-17T00:40:07.626Z,100074.23
2019-05-17T00:42:37.212Z,100068.25
2019-05-17T00:45:06.770Z,100068.03
2019-05-17T00:47:37.209Z,100069.48
2019-05-17T00:50:07.545Z,100065.23
2019-05-17T00:52:36.866Z,100065.83
2019-05-17T00:55:06.761Z,100060.46
2019-05-17T00:57:36.923Z,100062.96
2019-05-17T01:00:04.875Z,100066.99
2019-05-17T01:02:32.651Z,100064.28
2019-05-17T01:05:00.436Z,100054.69
2019-05-17T01:07:28.413Z,100052.83
2019-05-17T01:09:56.622Z,100057.19
2019-05-17T01:12:26.976Z,100053.26
2019-05-17T01:14:54.403Z,100051.10
2019-05-17T01:17:22.498Z,100049.71
2019-05-17T01:19:50.466Z,100048.48
2019-05-17T01:22:18.416Z,100036.73
2019-05-17T01:24:46.511Z,100043.48
2019-05-17T01:27:14.456Z,100031.46
2019-05-17T01:29:42.272Z,100035.34
2019-05-17T01:32:10.106Z,100038.77
2019-05-17T01:34:38.067Z,100040.69
2019-05-17T01:37:06.564Z,100031.72
2019-05-17T01:39:34.395Z,100043.02
2019-05-17T01:42:02.190Z,100045.22
2019-05-17T01:44:30.109Z,100032.22
2019-05-17T01:46:57.928Z,100027.64
2019-05-17T01:49:27.072Z,100025.25
2019-05-17T01:51:56.804Z,100017.28
2019-05-17T01:54:26.880Z,100017.63
2019-05-17T01:56:56.638Z,100019.77
2019-05-17T01:59:26.646Z,100013.81
2019-05-17T02:01:57.582Z,100013.22
2019-05-17T02:04:26.814Z,100010.39
2019-05-17T02:06:57.267Z,100007.05
2019-05-17T02:09:34.898Z,100005.42
2019-05-17T02:11:54.310Z,99997.83
2019-05-17T02:14:22.308Z,99994.92
2019-05-17T02:16:50.085Z,99995.29
2019-05-17T02:19:17.862Z,99998.08
2019-05-17T02:21:47.881Z,99997.97
2019-05-17T02:24:16.918Z,99991.77
2019-05-17T02:26:46.545Z,99987.52
2019-05-17T02:29:14.585Z,99990.64
2019-05-17T02:31:43.444Z,99984.33
2019-05-17T02:34:14.110Z,99982.53
2019-05-17T02:36:43.139Z,99987.95
2019-05-17T02:39:13.135Z,99991.66
2019-05-17T02:41:43.086Z,99986.00
2019-05-17T02:44:13.097Z,99983.92
2019-05-17T02:46:43.091Z,99981.64
2019-05-17T02:49:13.439Z,99981.70
2019-05-17T02:51:42.909Z,99979.82
2019-05-17T02:54:12.999Z,99985.00
2019-05-17T02:56:39.301Z,99974.72
2019-05-17T02:59:07.294Z,99973.84
2019-05-17T03:01:35.244Z,99974.38
2019-05-17T03:04:04.073Z,99968.52
2019-05-17T03:06:32.822Z,99966.83
2019-05-17T03:09:03.510Z,99972.30
2019-05-17T03:11:33.320Z,99971.33
2019-05-17T03:14:03.664Z,99970.59
2019-05-17T03:16:33.592Z,99969.86
2019-05-17T03:19:03.781Z,99965.82
2019-05-17T03:21:33.484Z,99971.13
2019-05-17T03:24:02.874Z,99976.36
2019-05-17T03:26:32.566Z,99969.30
2019-05-17T03:29:02.878Z,99973.03
2019-05-17T03:31:35.944Z,99968.78
2019-05-17T03:34:06.721Z,99971.52
2019-05-17T03:36:36.088Z,99972.42
2019-05-17T03:39:03.043Z,99974.02
2019-05-17T03:41:33.795Z,99975.97
2019-05-17T03:44:03.168Z,99970.61
2019-05-17T03:46:33.174Z,99973.16
2019-05-17T03:49:03.491Z,99976.30
2019-05-17T03:51:33.034Z,99974.22
2019-05-17T03:54:02.453Z,99974.55
2019-05-17T03:56:29.570Z,99977.43
2019-05-17T03:58:57.373Z,99976.53
2019-05-17T04:01:25.366Z,99977.87
2019-05-17T04:03:53.235Z,99974.30
2019-05-17T04:06:23.853Z,99984.27
2019-05-17T04:08:52.777Z,99974.98
2019-05-17T04:11:31.082Z,99971.53
2019-05-17T04:13:53.513Z,99973.84
2019-05-17T04:16:23.605Z,99967.27
2019-05-17T04:18:49.816Z,99968.13
2019-05-17T04:21:17.876Z,99974.53
2019-05-17T04:23:45.665Z,99975.79
2019-05-17T04:26:13.847Z,99978.80
2019-05-17T04:28:44.149Z,99971.04
2019-05-17T04:31:13.421Z,99976.57
2019-05-17T04:33:42.873Z,99974.79
2019-05-17T04:36:13.099Z,99979.68
2019-05-17T04:38:43.477Z,99977.27
2019-05-17T04:41:13.348Z,99972.70
2019-05-17T04:43:42.496Z,99973.89
2019-05-17T04:46:12.728Z,99979.89
2019-05-17T04:48:43.512Z,99972.70
2019-05-17T04:51:12.857Z,99985.42
2019-05-17T04:53:43.040Z,99979.68
2019-05-17T04:56:13.697Z,99978.31
2019-05-17T04:58:42.667Z,99978.39
2019-05-17T05:01:12.930Z,99980.54
2019-05-17T05:03:39.377Z,99976.97
2019-05-17T05:06:07.179Z,99978.11
2019-05-17T05:08:34.979Z,99971.96
2019-05-17T05:11:04.139Z,99968.14
2019-05-17T05:13:33.310Z,99973.27
2019-05-17T05:16:03.050Z,99973.37
2019-05-17T05:18:33.781Z,99970.95
2019-05-17T05:21:05.416Z,99974.30
2019-05-17T05:23:33.201Z,99963.75
2019-05-17T05:26:03.044Z,99964.86
2019-05-17T05:28:31.767Z,99960.77
2019-05-17T05:31:01.868Z,99953.79
2019-05-17T05:33:29.461Z,99956.95
2019-05-17T05:35:57.259Z,99956.85
2019-05-17T05:38:25.073Z,99956.80
2019-05-17T05:40:53.215Z,99951.84
2019-05-17T05:43:22.583Z,99954.20
2019-05-17T05:45:50.650Z,99949.23
2019-05-17T05:48:18.487Z,99945.52
2019-05-17T05:50:46.306Z,99939.31
2019-05-17T05:53:14.137Z,99947.05
2019-05-17T05:55:42.783Z,99947.36
2019-05-17T05:58:12.082Z,99947.41
2019-05-17T06:00:42.516Z,99940.33
2019-05-17T06:03:12.094Z,99941.20
2019-05-17T06:05:42.246Z,99950.69
2019-05-17T06:08:12.255Z,99942.73
2019-05-17T06:10:42.639Z,99945.98
2019-05-17T06:13:09.498Z,99943.52
2019-05-17T06:15:37.343Z,99943.78
2019-05-17T06:18:05.191Z,99942.73
2019-05-17T06:20:33.108Z,99942.48
2019-05-17T06:23:02.558Z,99947.70
2019-05-17T06:25:33.763Z,99941.80
2019-05-17T06:28:01.543Z,99939.93
2019-05-17T06:30:32.218Z,99937.59
2019-05-17T06:32:59.288Z,99930.79
2019-05-17T06:35:27.421Z,99933.20
2019-05-17T06:37:55.270Z,99942.14
2019-05-17T06:40:23.040Z,99937.55
2019-05-17T06:42:52.537Z,99935.62
2019-05-17T06:45:22.090Z,99937.45
2019-05-17T06:47:51.867Z,99939.21
2019-05-17T06:50:19.738Z,99935.75
2019-05-17T06:52:47.543Z,99934.31
2019-05-17T06:55:15.328Z,99925.88
2019-05-17T06:57:43.615Z,99932.06
2019-05-17T07:00:19.226Z,99935.54
2019-05-17T07:02:41.917Z,99932.25
2019-05-17T07:05:13.118Z,99928.44
2019-05-17T07:07:40.965Z,99926.08
2019-05-17T07:10:11.118Z,99924.90
2019-05-17T07:12:54.124Z,99920.92
2019-05-17T07:15:10.770Z,99923.09
2019-05-17T07:17:39.970Z,99923.20
2019-05-17T07:20:10.411Z,99926.30
2019-05-17T07:22:40.721Z,99925.38
2019-05-17T07:25:10.875Z,99925.14
2019-05-17T07:27:42.663Z,99919.52
2019-05-17T07:30:09.979Z,99913.70
2019-05-17T07:32:40.261Z,99917.84
2019-05-17T07:35:10.420Z,99922.91
2019-05-17T07:37:39.689Z,99922.20
2019-05-17T07:40:10.802Z,99930.88
2019-05-17T07:42:39.713Z,99926.86
2019-05-17T07:45:10.038Z,99920.48
2019-05-17T07:47:40.127Z,99914.10
2019-05-17T07:50:07.844Z,99923.53
2019-05-17T07:52:35.664Z,99921.03
2019-05-17T07:55:04.061Z,99924.70
2019-05-17T07:57:31.922Z,99914.47
2019-05-17T08:00:00.114Z,99909.84
2019-05-17T08:02:30.462Z,99914.79
2019-05-17T08:05:00.239Z,99925.69
2019-05-17T08:07:27.452Z,99919.70
2019-05-17T08:09:55.324Z,99915.32
2019-05-17T08:12:23.197Z,99910.30
2019-05-17T08:14:51.046Z,99904.27
2019-05-17T08:17:19.816Z,99909.45
2019-05-17T08:19:49.808Z,99894.53
2019-05-17T08:22:20.008Z,99883.83
2019-05-17T08:24:49.237Z,99899.33
2019-05-17T08:27:17.037Z,99900.96
2019-05-17T08:29:44.919Z,99885.66
2019-05-17T08:32:12.694Z,99885.85
2019-05-17T08:34:40.554Z,99882.06
2019-05-17T08:37:09.495Z,99879.35
2019-05-17T08:39:39.813Z,99880.78
2019-05-17T08:42:09.630Z,99875.84
2019-05-17T08:44:39.022Z,99871.30
2019-05-17T08:47:06.645Z,99868.70
2019-05-17T08:49:34.498Z,99851.04
2019-05-17T08:52:02.337Z,99852.47
2019-05-17T08:54:30.473Z,99842.91
2019-05-17T08:57:00.522Z,99846.89
2019-05-17T08:59:29.655Z,99838.06
2019-05-17T09:01:59.968Z,99841.25
2019-05-17T09:04:29.618Z,99843.48
2019-05-17T09:06:57.065Z,99843.61
2019-05-17T09:09:24.836Z,99839.20
2019-05-17T09:11:52.630Z,99844.72
2019-05-17T09:14:21.458Z,99836.22
2019-05-17T09:16:50.462Z,99831.41
2019-05-17T09:19:19.407Z,99834.33
2019-05-17T09:21:47.311Z,99836.01
2019-05-17T09:24:15.151Z,99830.83
2019-05-17T09:26:42.917Z,99823.16
2019-05-17T09:29:10.899Z,99816.91
2019-05-17T09:31:40.379Z,99816.98
2019-05-17T09:34:09.665Z,99814.73
2019-05-17T09:36:37.550Z,99800.16
2019-05-17T09:39:09.344Z,99806.48
2019-05-17T09:41:37.034Z,99808.00
2019-05-17T09:44:12.854Z,99808.67
2019-05-17T09:46:34.567Z,99811.33
2019-05-17T09:49:03.844Z,99813.09
2019-05-17T09:51:31.661Z,99813.62
2019-05-17T09:54:00.069Z,99810.23
2019-05-17T09:56:30.178Z,99814.44
2019-05-17T09:59:00.228Z,99809.23
2019-05-17T10:01:27.473Z,99804.56
2019-05-17T10:03:55.299Z,99800.70
2019-05-17T10:06:23.085Z,99792.16
2019-05-17T10:08:50.863Z,99795.14
2019-05-17T10:11:20.305Z,99792.09
2019-05-17T10:13:49.891Z,99799.66
2019-05-17T10:16:20.310Z,99798.25
2019-05-17T10:18:47.859Z,99796.91
2019-05-17T10:21:15.700Z,99795.84
2019-05-17T10:23:43.560Z,99786.22
2019-05-17T10:26:11.412Z,99777.28
2019-05-17T10:28:40.010Z,99778.48
2019-05-17T10:31:11.640Z,99776.27
2019-05-17T10:33:39.952Z,99776.02
2019-05-17T10:36:07.532Z,99779.21
2019-05-17T10:38:35.412Z,99772.02
2019-05-17T10:41:10.174Z,99778.02
2019-05-17T10:43:39.278Z,99777.89
2019-05-17T10:46:07.301Z,99772.98
2019-05-17T10:48:35.264Z,99770.38
2019-05-17T10:51:05.768Z,99763.52
2019-05-17T10:53:33.792Z,99767.05
2019-05-17T10:56:01.667Z,99771.84
2019-05-17T10:58:29.804Z,99770.75
2019-05-17T11:00:57.750Z,99770.28
2019-05-17T11:03:25.577Z,99770.63
2019-05-17T11:05:53.385Z,99773.80
2019-05-17T11:08:21.256Z,99766.27
2019-05-17T11:10:50.198Z,99758.13
2019-05-17T11:13:21.294Z,99757.37
2019-05-17T11:15:49.133Z,99761.70
2019-05-17T11:18:17.282Z,99752.97
2019-05-17T11:20:45.286Z,99740.97
2019-05-17T11:23:13.137Z,99739.95
2019-05-17T11:25:45.400Z,99736.03
2019-05-17T11:28:10.705Z,99740.13
2019-05-17T11:30:38.516Z,99736.94
2019-05-17T11:33:06.344Z,99743.72
2019-05-17T11:35:34.212Z,99739.64
2019-05-17T11:38:01.989Z,99743.65
2019-05-17T11:40:30.069Z,99733.90
2019-05-17T11:42:57.902Z,99740.70
2019-05-17T11:45:29.089Z,99736.59
2019-05-17T11:47:55.448Z,99733.08
2019-05-17T11:50:23.349Z,99738.38
2019-05-17T11:52:51.171Z,99740.30
2019-05-17T11:55:19.009Z,99736.16
2019-05-17T11:57:46.848Z,99736.83
2019-05-17T12:00:16.672Z,99733.83
2019-05-17T12:02:44.569Z,99736.24
2019-05-17T12:05:12.656Z,99723.38
2019-05-17T12:07:40.525Z,99730.13
2019-05-17T12:10:08.744Z,99716.73
2019-05-17T12:12:36.590Z,99717.47
2019-05-17T12:15:04.812Z,99709.03
2019-05-17T12:17:32.702Z,99714.43
2019-05-17T12:20:00.472Z,99710.99
2019-05-17T12:22:28.317Z,99707.84
2019-05-17T12:24:56.180Z,99697.88
2019-05-17T12:27:24.014Z,99692.48
2019-05-17T12:29:51.886Z,99696.27
2019-05-17T12:32:19.727Z,99702.08
2019-05-17T12:34:47.582Z,99702.94
2019-05-17T12:37:15.427Z,99696.70
2019-05-17T12:39:43.243Z,99686.72
2019-05-17T12:42:11.237Z,99692.12
2019-05-17T12:44:39.134Z,99688.05
2019-05-17T12:47:07.092Z,99690.75
2019-05-17T12:49:34.895Z,99691.23
2019-05-17T12:52:03.810Z,99693.06
2019-05-17T12:54:31.618Z,99690.81
2019-05-17T12:56:59.423Z,99690.98
2019-05-17T12:59:27.187Z,99688.43
2019-05-17T13:01:54.998Z,99699.39
2019-05-17T13:04:22.753Z,99686.30
2019-05-17T13:06:50.570Z,99683.39
2019-05-17T13:09:18.408Z,99686.18
2019-05-17T13:11:46.247Z,99680.05
2019-05-17T13:14:14.123Z,99670.11
2019-05-17T13:16:41.983Z,99661.09
2019-05-17T13:19:09.753Z,99668.19
2019-05-17T13:21:37.528Z,99677.20
2019-05-17T13:24:05.408Z,99685.31
2019-05-17T13:26:33.179Z,99674.20
2019-05-17T13:29:01.126Z,99665.48
2019-05-17T13:31:28.929Z,99673.55
2019-05-17T13:33:56.738Z,99673.59
2019-05-17T13:36:24.567Z,99664.36
2019-05-17T13:38:52.463Z,99665.98
2019-05-17T13:41:20.264Z,99663.05
2019-05-17T13:43:48.213Z,99664.29
2019-05-17T13:46:16.090Z,99667.25
2019-05-17T13:48:43.883Z,99660.48
2019-05-17T13:51:11.669Z,99660.98
2019-05-17T13:53:39.491Z,99663.03
2019-05-17T13:56:07.275Z,99658.72
2019-05-17T13:58:35.093Z,99654.47
2019-05-17T14:01:02.895Z,99650.69
2019-05-17T14:03:30.683Z,99641.56
2019-05-17T14:05:58.600Z,99640.13
2019-05-17T14:08:26.388Z,99640.45
2019-05-17T14:10:54.233Z,99635.51
2019-05-17T14:13:22.102Z,99640.11
2019-05-17T14:15:50.010Z,99646.16
2019-05-17T14:18:17.845Z,99641.98
2019-05-17T14:20:45.743Z,99641.22
2019-05-17T14:23:13.548Z,99632.97
2019-05-17T14:25:41.382Z,99635.94
2019-05-17T14:28:11.311Z,99641.45
2019-05-17T14:30:38.871Z,99633.43
2019-05-17T14:33:06.666Z,99629.83
2019-05-17T14:35:34.558Z,99629.70
2019-05-17T14:38:02.397Z,99621.70
2019-05-17T14:41:04.000Z,99631.05
2019-05-17T14:43:00.071Z,99628.22
2019-05-17T14:45:27.885Z,99624.34
2019-05-17T14:47:55.706Z,99629.22
2019-05-17T14:50:23.544Z,99632.52
2019-05-17T14:52:51.610Z,99625.36
2019-05-17T14:55:19.390Z,99616.29
2019-05-17T14:57:47.237Z,99619.45
2019-05-17T15:00:18.039Z,99616.97
2019-05-17T15:02:45.852Z,99618.30
2019-05-17T15:05:13.964Z,99613.45
2019-05-17T15:07:41.760Z,99617.63
2019-05-17T15:10:09.771Z,99624.08
2019-05-17T15:12:37.586Z,99620.06
2019-05-17T15:15:05.774Z,99615.83
2019-05-17T15:17:35.244Z,99614.66
2019-05-17T15:20:03.276Z,99615.21
2019-05-17T15:22:31.131Z,99613.15
2019-05-17T15:24:59.022Z,99610.08
2019-05-17T15:27:26.965Z,99604.92
2019-05-17T15:29:54.725Z,99602.92
2019-05-17T15:32:22.500Z,99602.43
2019-05-17T15:34:50.448Z,99602.51
2019-05-17T15:37:18.214Z,99590.89
2019-05-17T15:39:46.062Z,99597.61
2019-05-17T15:42:13.900Z,99596.62
2019-05-17T15:44:41.729Z,99587.79
2019-05-17T15:47:09.821Z,99589.84
2019-05-17T15:49:37.655Z,99590.75
2019-05-17T15:52:05.464Z,99587.39
2019-05-17T15:54:33.326Z,99599.14
2019-05-17T15:57:01.238Z,99595.70
2019-05-17T15:59:29.026Z,99585.93
2019-05-17T16:01:56.862Z,99590.26
2019-05-17T16:04:24.679Z,99587.61
2019-05-17T16:06:52.482Z,99581.34
2019-05-17T16:09:20.421Z,99578.45
2019-05-17T16:11:48.230Z,99571.81
2019-05-17T16:14:16.008Z,99581.27
2019-05-17T16:16:43.790Z,99581.37
2019-05-17T16:19:11.589Z,99577.16
2019-05-17T16:21:39.509Z,99579.39
2019-05-17T16:24:07.342Z,99575.44
2019-05-17T16:26:35.159Z,99579.09
2019-05-17T16:29:03.108Z,99573.46
2019-05-17T16:31:31.030Z,99573.89
2019-05-17T16:33:58.909Z,99569.20
2019-05-17T16:36:26.720Z,99568.61
2019-05-17T16:38:54.560Z,99568.03
2019-05-17T16:41:22.425Z,99570.05
2019-05-17T16:43:50.251Z,99570.42
2019-05-17T16:46:18.194Z,99567.55
2019-05-17T16:48:46.035Z,99563.86
2019-05-17T16:51:13.846Z,99562.78
2019-05-17T16:53:41.989Z,99562.02
2019-05-17T16:56:09.836Z,99557.98
2019-05-17T16:58:37.720Z,99562.85
2019-05-17T17:01:05.675Z,99557.73
2019-05-17T17:03:43.770Z,99556.19
2019-05-17T17:06:03.397Z,99563.59
2019-05-17T17:08:31.366Z,99547.78
2019-05-17T17:10:59.156Z,99547.84
2019-05-17T17:13:33.036Z,99545.44
2019-05-17T17:15:56.773Z,99552.11
2019-05-17T17:18:24.615Z,99552.25
2019-05-17T17:20:52.468Z,99551.39
2019-05-17T17:23:20.353Z,99547.94
2019-05-17T17:25:48.122Z,99552.92
2019-05-17T17:28:15.969Z,99553.46
2019-05-17T17:30:43.755Z,99547.98
2019-05-17T17:33:11.658Z,99552.16
2019-05-17T17:35:39.500Z,99550.02
2019-05-17T17:38:07.349Z,99547.97
2019-05-17T17:40:35.364Z,99551.08
2019-05-17T17:43:03.263Z,99553.27
2019-05-17T17:45:31.092Z,99547.33
2019-05-17T17:47:58.893Z,99543.52
2019-05-17T17:50:26.763Z,99547.62
2019-05-17T17:52:54.725Z,99545.19
2019-05-17T17:55:22.551Z,99539.00
2019-05-17T17:57:50.622Z,99533.34
2019-05-17T18:00:21.427Z,99535.32
2019-05-17T18:02:49.397Z,99539.73
2019-05-17T18:05:17.537Z,99539.52
2019-05-17T18:07:45.375Z,99543.32
2019-05-17T18:10:25.756Z,99542.25
2019-05-17T18:12:53.587Z,99540.45
2019-05-17T18:15:39.218Z,99544.53
2019-05-17T18:18:07.048Z,99548.68
2019-05-17T18:20:35.095Z,99554.44
2019-05-17T18:23:03.435Z,99554.78
2019-05-17T18:25:31.295Z,99560.22
2019-05-17T18:27:59.136Z,99555.05
2019-05-17T18:30:27.051Z,99558.34
2019-05-17T18:32:54.863Z,99557.28
2019-05-17T18:35:22.715Z,99565.44
2019-05-17T18:37:50.498Z,99553.52
2019-05-17T18:40:18.441Z,99556.57
2019-05-17T18:42:46.225Z,99555.23
2019-05-17T18:45:14.479Z,99557.14
2019-05-17T18:47:42.323Z,99555.50
2019-05-17T18:50:12.269Z,99555.53
2019-05-17T18:52:40.136Z,99554.99
2019-05-17T18:55:08.501Z,99561.25
2019-05-17T18:57:36.455Z,99560.17
2019-05-17T19:00:05.377Z,99570.23
2019-05-17T19:02:33.177Z,99569.97
2019-05-17T19:05:00.989Z,99570.48
2019-05-17T19:07:28.785Z,99569.37
2019-05-17T19:09:56.605Z,99574.01
2019-05-17T19:12:24.424Z,99576.17
2019-05-17T19:14:52.346Z,99573.70
2019-05-17T19:17:20.122Z,99578.59
2019-05-17T19:19:47.939Z,99577.20
2019-05-17T19:22:15.769Z,99580.45
2019-05-17T19:24:43.637Z,99578.80
2019-05-17T19:27:11.486Z,99580.14
2019-05-17T19:29:39.562Z,99580.63
2019-05-17T19:32:07.392Z,99581.45
2019-05-17T19:34:35.182Z,99586.85
2019-05-17T19:37:03.143Z,99579.51
2019-05-17T19:39:30.925Z,99585.45
2019-05-17T19:41:58.773Z,99587.84
2019-05-17T19:44:26.599Z,99587.30
2019-05-17T19:46:54.547Z,99584.02
2019-05-17T19:49:22.374Z,99591.84
2019-05-17T19:51:50.249Z,99590.75
2019-05-17T19:54:18.071Z,99587.19
2019-05-17T19:56:45.855Z,99589.61
2019-05-17T19:59:13.661Z,99582.77
2019-05-17T20:01:41.496Z,99592.20
2019-05-17T20:04:09.277Z,99589.98
2019-05-17T20:06:37.086Z,99592.97
2019-05-17T20:09:05.680Z,99593.23
2019-05-17T20:11:34.689Z,99599.41
2019-05-17T20:14:02.717Z,99590.22
2019-05-17T20:16:30.547Z,99594.52
2019-05-17T20:18:58.494Z,99586.38
2019-05-17T20:21:26.314Z,99589.02
2019-05-17T20:23:54.263Z,99596.33
2019-05-17T20:26:22.069Z,99587.32
2019-05-17T20:28:49.931Z,99594.06
2019-05-17T20:31:17.795Z,99590.78
2019-05-17T20:33:45.596Z,99589.66
2019-05-17T20:36:13.406Z,99592.05
2019-05-17T20:38:41.306Z,99589.04
2019-05-17T20:41:09.122Z,99589.27
2019-05-17T20:43:36.901Z,99592.20
2019-05-17T20:46:04.807Z,99590.14
2019-05-17T20:48:32.688Z,99592.33
2019-05-17T20:51:00.675Z,99590.13
2019-05-17T20:53:28.640Z,99586.34
2019-05-17T20:55:56.444Z,99581.92
2019-05-17T20:58:25.098Z,99578.36
2019-05-17T21:00:52.912Z,99579.10
2019-05-17T21:03:20.740Z,99582.02
2019-05-17T21:05:48.618Z,99580.71
2019-05-17T21:08:16.562Z,99579.25
2019-05-17T21:10:44.312Z,99576.55
2019-05-17T21:13:12.172Z,99577.48
2019-05-17T21:15:47.459Z,99579.66
2019-05-17T21:18:09.637Z,99573.36
2019-05-17T21:20:37.463Z,99584.70
2019-05-17T21:23:05.406Z,99577.05
2019-05-17T21:25:33.172Z,99580.98
2019-05-17T21:28:01.036Z,99586.85
2019-05-17T21:30:28.849Z,99587.83
2019-05-17T21:32:56.719Z,99590.53
2019-05-17T21:35:24.501Z,99589.62
2019-05-17T21:37:52.363Z,99591.56
2019-05-17T21:40:20.193Z,99594.45
2019-05-17T21:42:48.006Z,99593.80
2019-05-17T21:45:16.140Z,99591.86
2019-05-17T21:47:44.268Z,99590.17
2019-05-17T21:50:12.229Z,99583.41
2019-05-17T21:52:40.175Z,99586.12
2019-05-17T21:55:08.190Z,99593.22
2019-05-17T21:57:36.175Z,99583.58
2019-05-17T22:00:09.991Z,99586.67
2019-05-17T22:02:37.923Z,99589.33
2019-05-17T22:05:06.009Z,99582.75
2019-05-17T22:07:33.855Z,99583.34
2019-05-17T22:10:01.796Z,99584.68
2019-05-17T22:12:31.381Z,99584.05
2019-05-17T22:14:59.192Z,99585.51
2019-05-17T22:17:27.003Z,99582.53
2019-05-17T22:19:54.814Z,99580.93
2019-05-17T22:22:22.598Z,99584.86
2019-05-17T22:24:50.450Z,99587.28
2019-05-17T22:27:18.241Z,99581.94
2019-05-17T22:29:46.065Z,99577.23
2019-05-17T22:32:13.882Z,99590.66
2019-05-17T22:34:41.654Z,99586.61
2019-05-17T22:37:09.541Z,99584.68
2019-05-17T22:39:37.335Z,99586.28
2019-05-17T22:42:05.131Z,99580.55
2019-05-17T22:44:32.933Z,99580.66
2019-05-17T22:47:00.845Z,99581.49
2019-05-17T22:49:28.739Z,99579.89
2019-05-17T22:51:56.538Z,99579.42
2019-05-17T22:54:24.873Z,99572.31
2019-05-17T22:56:52.679Z,99573.14
2019-05-17T22:59:20.469Z,99570.38
2019-05-17T23:01:48.253Z,99571.16
2019-05-17T23:04:16.042Z,99577.36
2019-05-17T23:06:43.852Z,99569.09
2019-05-17T23:09:11.631Z,99569.68
2019-05-17T23:11:39.449Z,99562.95
2019-05-17T23:14:07.239Z,99570.56
2019-05-17T23:16:50.255Z,99572.16
2019-05-17T23:19:10.670Z,99566.18
2019-05-17T23:21:38.612Z,99565.87
2019-05-17T23:24:06.771Z,99560.23
2019-05-17T23:26:35.389Z,99563.52
2019-05-17T23:29:03.418Z,99560.17
2019-05-17T23:31:31.243Z,99561.00
2019-05-17T23:33:59.064Z,99562.48
2019-05-17T23:36:26.892Z,99560.97
2019-05-17T23:38:54.714Z,99561.89
2019-05-17T23:41:22.602Z,99558.52
2019-05-17T23:43:52.019Z,99559.11
2019-05-17T23:46:19.882Z,99565.54
2019-05-17T23:48:47.648Z,99564.44
2019-05-17T23:51:15.573Z,99559.00
2019-05-17T23:53:43.385Z,99565.95
2019-05-17T23:56:11.205Z,99559.55
2019-05-17T23:58:38.997Z,99559.55
